Time;durP1;ratioP1;P1;durP2;ratioP2;P2;SDS_P1;SDS_P2;PMS_P1;PMS_P2;Temp;Humidity;BMP_temperature;BMP_pressure;BME280_temperature;BME280_humidity;BME280_pressure;Samples;Min_cycle;Max_cycle;Signal;HPM_P1;HPM_P2
2022/03/25 00:00:24;;;;;;;24.77;13.57;;;9.10;53.00;;;;;;5057675;28;20296;-68
2022/03/25 00:02:51;;;;;;;20.37;12.87;;;9.10;53.00;;;;;;5073642;28;20288;-68
2022/03/25 00:05:19;;;;;;;17.40;11.67;;;9.00;52.80;;;;;;5071468;28;20261;-69
2022/03/25 00:07:46;;;;;;;18.53;11.93;;;9.00;52.70;;;;;;5068392;28;20304;-69
2022/03/25 00:10:13;;;;;;;20.00;11.30;;;9.00;52.50;;;;;;5065301;28;20214;-68
2022/03/25 00:12:40;;;;;;;19.97;11.30;;;9.00;52.40;;;;;;5074597;28;20217;-68
2022/03/25 00:15:08;;;;;;;17.70;10.47;;;9.00;52.20;;;;;;5073022;28;20208;-69
2022/03/25 00:17:35;;;;;;;17.77;10.10;;;9.00;51.90;;;;;;5077364;28;20209;-68
2022/03/25 00:20:02;;;;;;;17.90;10.77;;;9.00;51.80;;;;;;5069767;28;20621;-68
2022/03/25 00:22:29;;;;;;;16.33;9.73;;;8.90;51.50;;;;;;5077689;28;20252;-68
2022/03/25 00:24:56;;;;;;;14.63;10.60;;;8.90;51.20;;;;;;5074117;28;20242;-68
2022/03/25 00:27:23;;;;;;;15.63;10.50;;;8.90;51.20;;;;;;5074865;28;20204;-69
2022/03/25 00:29:50;;;;;;;16.33;10.43;;;8.80;51.30;;;;;;5072767;28;20237;-69
2022/03/25 00:32:20;;;;;;;18.07;10.53;;;8.80;51.40;;;;;;5070774;28;20229;-68
2022/03/25 00:34:46;;;;;;;17.30;10.00;;;8.90;51.40;;;;;;5075541;28;20278;-68
2022/03/25 00:37:13;;;;;;;18.03;11.03;;;8.80;51.40;;;;;;5074181;28;20201;-68
2022/03/25 00:39:40;;;;;;;17.50;10.53;;;8.90;51.40;;;;;;5063909;28;20328;-68
2022/03/25 00:42:09;;;;;;;16.27;10.10;;;8.80;51.30;;;;;;5074510;28;20217;-68
2022/03/25 00:44:36;;;;;;;17.30;10.50;;;8.80;51.30;;;;;;5075008;28;20197;-68
2022/03/25 00:47:03;;;;;;;19.37;10.77;;;8.80;51.20;;;;;;5065909;28;20304;-68
2022/03/25 00:49:32;;;;;;;17.70;10.30;;;8.80;51.30;;;;;;5076256;28;20247;-69
2022/03/25 00:51:59;;;;;;;16.60;10.67;;;8.70;51.30;;;;;;5076967;28;20235;-69
2022/03/25 00:54:27;;;;;;;14.97;10.13;;;8.70;51.30;;;;;;5077945;28;20213;-68
2022/03/25 00:56:54;;;;;;;18.07;9.87;;;8.60;51.30;;;;;;5067452;28;20985;-68
2022/03/25 00:59:22;;;;;;;21.97;10.70;;;8.70;51.40;;;;;;5077695;28;20632;-68
2022/03/25 01:01:48;;;;;;;15.90;9.97;;;8.70;51.20;;;;;;5076803;28;20267;-69
2022/03/25 01:04:16;;;;;;;17.50;10.20;;;8.70;51.20;;;;;;5073534;28;20551;-68
2022/03/25 01:06:45;;;;;;;18.57;10.33;;;8.60;51.10;;;;;;5073433;28;20201;-68
2022/03/25 01:09:12;;;;;;;16.73;9.70;;;8.60;51.00;;;;;;5063669;28;20382;-69
2022/03/25 01:11:39;;;;;;;14.50;9.97;;;8.60;50.80;;;;;;5078040;28;20212;-69
2022/03/25 01:14:08;;;;;;;16.37;10.00;;;8.50;50.60;;;;;;5073744;28;20263;-67
2022/03/25 01:16:35;;;;;;;18.27;10.10;;;8.50;50.80;;;;;;5066485;28;20209;-68
2022/03/25 01:19:02;;;;;;;19.67;10.27;;;8.50;51.00;;;;;;5077279;28;20209;-68
2022/03/25 01:21:28;;;;;;;17.40;10.13;;;8.50;51.10;;;;;;5076232;28;20220;-69
2022/03/25 01:23:57;;;;;;;13.73;9.70;;;8.50;51.10;;;;;;5074712;28;20213;-67
2022/03/25 01:26:24;;;;;;;16.63;10.07;;;8.50;51.20;;;;;;5072553;28;20606;-68
2022/03/25 01:28:52;;;;;;;15.00;10.47;;;8.50;51.20;;;;;;5076897;28;20201;-68
2022/03/25 01:31:19;;;;;;;17.27;11.00;;;8.40;51.10;;;;;;5077021;28;20209;-68
2022/03/25 01:33:46;;;;;;;16.73;10.13;;;8.40;51.10;;;;;;5075909;28;20284;-68
2022/03/25 01:36:13;;;;;;;15.20;9.97;;;8.40;51.10;;;;;;5059814;28;20217;-68
2022/03/25 01:38:40;;;;;;;19.47;11.03;;;8.40;51.10;;;;;;5069634;28;20202;-68
2022/03/25 01:41:09;;;;;;;16.53;10.23;;;8.40;51.10;;;;;;5059735;28;20205;-68
2022/03/25 01:43:36;;;;;;;15.67;10.10;;;8.30;51.10;;;;;;5069160;28;20256;-68
2022/03/25 01:46:04;;;;;;;18.73;9.97;;;8.30;51.10;;;;;;5076018;28;20248;-68
2022/03/25 01:48:31;;;;;;;16.37;9.63;;;8.30;51.30;;;;;;5075560;28;20244;-68
2022/03/25 01:51:01;;;;;;;18.33;10.60;;;8.30;51.30;;;;;;5070069;28;20639;-68
2022/03/25 01:53:28;;;;;;;17.43;9.77;;;8.30;51.40;;;;;;5074987;28;20248;-68
2022/03/25 01:55:58;;;;;;;16.03;10.10;;;8.20;51.30;;;;;;5076669;28;20237;-68
2022/03/25 01:58:28;;;;;;;15.93;10.63;;;8.30;51.50;;;;;;5072890;28;20216;-68
2022/03/25 02:00:55;;;;;;;18.57;10.97;;;8.20;51.30;;;;;;5076001;28;20725;-70
2022/03/25 02:03:22;;;;;;;16.77;10.93;;;8.20;51.30;;;;;;5076603;28;20650;-72
2022/03/25 02:05:50;;;;;;;20.53;11.97;;;8.20;51.40;;;;;;5067564;28;20205;-71
2022/03/25 02:08:18;;;;;;;20.00;11.90;;;8.20;51.30;;;;;;5075255;28;20212;-71
2022/03/25 02:10:45;;;;;;;22.67;11.53;;;8.20;52.00;;;;;;5075425;28;20209;-71
2022/03/25 02:13:12;;;;;;;23.53;12.97;;;8.10;51.70;;;;;;5076278;28;20240;-70
2022/03/25 02:15:43;;;;;;;21.43;12.90;;;8.00;51.80;;;;;;5077099;28;20201;-72
2022/03/25 02:18:12;;;;;;;24.07;13.67;;;8.00;52.00;;;;;;5076509;28;20216;-70
2022/03/25 02:20:40;;;;;;;22.10;12.97;;;8.00;52.30;;;;;;5075540;28;20260;-70
2022/03/25 02:23:09;;;;;;;21.23;12.47;;;7.90;52.40;;;;;;5074523;28;20192;-71
2022/03/25 02:25:37;;;;;;;21.20;13.27;;;7.90;52.70;;;;;;5076175;28;20312;-71
2022/03/25 02:28:05;;;;;;;20.87;12.57;;;7.80;52.80;;;;;;5076308;28;20247;-70
2022/03/25 02:30:34;;;;;;;20.63;12.40;;;7.80;52.90;;;;;;5063950;28;20229;-72
2022/03/25 02:33:02;;;;;;;20.30;12.63;;;7.80;52.90;;;;;;5062691;28;20221;-71
2022/03/25 02:35:37;;;;;;;21.53;13.97;;;7.80;53.00;;;;;;5074153;28;20274;-71
2022/03/25 02:38:04;;;;;;;21.83;12.77;;;7.80;53.20;;;;;;5069549;28;20216;-71
2022/03/25 02:40:33;;;;;;;25.97;13.73;;;7.80;53.20;;;;;;5074024;28;20205;-71
2022/03/25 02:43:00;;;;;;;21.40;13.90;;;7.70;53.20;;;;;;5066047;28;20276;-72
2022/03/25 02:45:27;;;;;;;19.47;12.13;;;7.70;53.50;;;;;;5073955;28;20198;-71
2022/03/25 02:47:54;;;;;;;23.50;13.37;;;7.70;53.60;;;;;;5075085;28;20749;-71
2022/03/25 02:50:21;;;;;;;21.33;13.23;;;7.60;53.60;;;;;;5067542;28;20229;-72
2022/03/25 02:52:48;;;;;;;21.93;13.27;;;7.60;53.80;;;;;;5066426;28;20225;-71
2022/03/25 02:55:15;;;;;;;22.67;13.17;;;7.50;53.80;;;;;;5074903;28;20612;-70
2022/03/25 02:57:43;;;;;;;20.50;13.97;;;7.50;54.00;;;;;;5073549;28;20243;-71
2022/03/25 03:00:11;;;;;;;24.70;13.97;;;7.50;54.00;;;;;;5075177;28;20640;-70
2022/03/25 03:02:39;;;;;;;21.07;13.07;;;7.40;54.00;;;;;;5075222;28;20209;-71
2022/03/25 03:05:07;;;;;;;22.57;13.33;;;7.30;54.10;;;;;;5071482;28;20270;-72
2022/03/25 03:07:36;;;;;;;23.17;13.90;;;7.20;54.60;;;;;;5075146;28;20206;-71
2022/03/25 03:10:04;;;;;;;23.90;13.57;;;7.10;54.80;;;;;;5074643;28;20668;-71
2022/03/25 03:12:31;;;;;;;23.77;14.17;;;7.00;55.20;;;;;;5071463;28;20662;-71
2022/03/25 03:15:00;;;;;;;21.33;13.00;;;7.00;55.40;;;;;;5067345;28;20205;-71
2022/03/25 03:17:27;;;;;;;21.87;13.23;;;6.90;55.70;;;;;;5072747;28;20574;-70
2022/03/25 03:19:54;;;;;;;21.70;12.57;;;6.90;55.70;;;;;;5076303;28;20588;-71
2022/03/25 03:22:22;;;;;;;19.63;13.13;;;6.80;55.60;;;;;;5062957;28;20643;-71
2022/03/25 03:24:49;;;;;;;20.63;12.57;;;6.80;55.90;;;;;;5074793;28;20868;-72
2022/03/25 03:27:16;;;;;;;21.13;13.97;;;6.70;56.10;;;;;;5070451;28;20240;-72
2022/03/25 03:29:43;;;;;;;23.97;13.43;;;6.70;56.20;;;;;;5075902;28;20205;-71
2022/03/25 03:32:11;;;;;;;22.07;12.40;;;6.70;56.20;;;;;;5075088;28;20205;-71
2022/03/25 03:34:38;;;;;;;20.40;13.10;;;6.70;56.30;;;;;;5074320;28;20240;-71
2022/03/25 03:37:05;;;;;;;22.63;13.97;;;6.60;56.90;;;;;;5074427;28;20203;-71
2022/03/25 03:39:32;;;;;;;21.83;13.27;;;6.50;56.40;;;;;;5060456;28;20244;-72
2022/03/25 03:41:59;;;;;;;23.50;14.10;;;6.50;56.60;;;;;;5077876;28;20213;-71
2022/03/25 03:44:26;;;;;;;23.77;14.60;;;6.40;56.70;;;;;;5076490;28;20215;-71
2022/03/25 03:46:53;;;;;;;22.80;13.67;;;6.40;56.90;;;;;;5078144;28;20220;-71
2022/03/25 03:49:22;;;;;;;22.53;13.00;;;6.40;56.90;;;;;;5073428;28;20228;-71
2022/03/25 03:51:49;;;;;;;26.03;14.07;;;6.40;56.90;;;;;;5075695;28;20233;-71
2022/03/25 03:54:16;;;;;;;23.07;12.77;;;6.40;57.00;;;;;;5069036;28;20244;-72
2022/03/25 03:56:43;;;;;;;28.80;14.53;;;6.30;57.00;;;;;;5075053;28;20205;-72
2022/03/25 03:59:10;;;;;;;23.90;13.07;;;6.30;57.30;;;;;;5077890;28;20241;-71
2022/03/25 04:01:37;;;;;;;21.23;12.77;;;6.20;57.20;;;;;;5079302;28;20371;-71
2022/03/25 04:04:05;;;;;;;19.90;12.90;;;6.10;57.30;;;;;;5078787;28;20232;-71
2022/03/25 04:06:34;;;;;;;20.30;12.70;;;6.10;57.40;;;;;;5077419;28;20216;-71
2022/03/25 04:09:00;;;;;;;25.47;13.43;;;6.10;57.50;;;;;;5066727;28;20217;-72
2022/03/25 04:11:27;;;;;;;20.07;12.33;;;6.10;57.50;;;;;;5079555;28;20614;-70
2022/03/25 04:13:54;;;;;;;20.60;12.70;;;6.10;57.50;;;;;;5060388;28;20256;-71
2022/03/25 04:16:22;;;;;;;19.27;12.23;;;6.20;57.60;;;;;;5073195;28;20201;-72
2022/03/25 04:18:49;;;;;;;21.17;13.30;;;6.20;57.60;;;;;;5078521;28;20214;-73
2022/03/25 04:21:16;;;;;;;21.07;12.67;;;6.20;57.50;;;;;;5077508;28;20273;-72
2022/03/25 04:23:44;;;;;;;19.17;12.23;;;6.20;57.60;;;;;;5079543;28;20201;-72
2022/03/25 04:26:11;;;;;;;21.10;12.87;;;6.20;57.50;;;;;;5073211;28;20201;-72
2022/03/25 04:28:38;;;;;;;22.13;12.47;;;6.30;57.50;;;;;;5076658;28;20260;-72
2022/03/25 04:31:06;;;;;;;19.50;12.57;;;6.30;57.30;;;;;;5070955;28;20198;-72
2022/03/25 04:33:34;;;;;;;23.03;12.40;;;6.20;57.20;;;;;;5070108;28;20251;-73
2022/03/25 04:36:01;;;;;;;19.93;11.97;;;6.20;57.30;;;;;;5080075;28;20208;-72
2022/03/25 04:38:29;;;;;;;20.17;12.83;;;6.10;57.40;;;;;;5070693;28;20202;-72
2022/03/25 04:40:57;;;;;;;21.27;12.20;;;6.10;57.60;;;;;;5070647;28;20237;-72
2022/03/25 04:43:24;;;;;;;17.40;11.73;;;6.00;57.70;;;;;;5068752;28;20702;-72
2022/03/25 04:45:51;;;;;;;19.97;12.27;;;6.00;57.80;;;;;;5069295;28;20206;-73
2022/03/25 04:48:18;;;;;;;21.43;12.27;;;6.00;57.90;;;;;;5073258;28;20206;-73
2022/03/25 04:50:45;;;;;;;21.43;11.70;;;6.00;57.90;;;;;;5071186;28;20248;-72
2022/03/25 04:53:13;;;;;;;21.37;13.40;;;6.00;57.90;;;;;;5079430;28;20236;-73
2022/03/25 04:55:39;;;;;;;20.10;11.60;;;6.00;57.90;;;;;;5079950;28;20220;-73
2022/03/25 04:58:08;;;;;;;23.63;12.20;;;6.00;57.90;;;;;;5072727;28;20293;-73
2022/03/25 05:00:37;;;;;;;23.43;12.83;;;6.00;58.00;;;;;;5076619;28;20193;-73
2022/03/25 05:03:04;;;;;;;18.93;11.97;;;6.00;57.90;;;;;;5079827;28;20575;-72
2022/03/25 05:05:32;;;;;;;20.37;12.57;;;6.10;58.50;;;;;;5076485;28;20628;-72
2022/03/25 05:07:59;;;;;;;21.27;12.73;;;6.10;57.90;;;;;;5075470;28;20211;-72
2022/03/25 05:10:27;;;;;;;23.50;12.80;;;6.20;57.90;;;;;;5074681;28;20201;-72
2022/03/25 05:12:54;;;;;;;20.73;12.43;;;6.20;57.80;;;;;;5070114;28;20205;-74
2022/03/25 05:15:22;;;;;;;19.73;11.80;;;6.30;57.70;;;;;;5065512;28;20210;-72
2022/03/25 05:17:53;;;;;;;23.03;12.83;;;6.30;57.60;;;;;;5079035;28;20669;-73
2022/03/25 05:20:21;;;;;;;23.67;13.40;;;6.40;57.60;;;;;;5077072;28;20288;-72
2022/03/25 05:22:50;;;;;;;20.63;12.50;;;6.50;57.40;;;;;;5078546;28;20296;-73
2022/03/25 05:25:17;;;;;;;21.43;11.53;;;6.50;57.40;;;;;;5073587;28;20216;-73
2022/03/25 05:27:50;;;;;;;21.97;12.77;;;6.60;57.20;;;;;;5077243;28;20201;-72
2022/03/25 05:30:19;;;;;;;23.73;13.50;;;6.60;57.20;;;;;;5075790;28;20251;-72
2022/03/25 05:32:47;;;;;;;23.60;13.20;;;6.70;57.10;;;;;;5078816;28;20513;-71
2022/03/25 05:35:14;;;;;;;18.07;12.17;;;6.70;57.00;;;;;;5075885;28;20229;-71
2022/03/25 05:37:41;;;;;;;21.03;13.80;;;6.70;57.00;;;;;;5074974;28;20288;-72
2022/03/25 05:40:10;;;;;;;22.67;12.27;;;6.70;56.90;;;;;;5077219;28;20201;-72
2022/03/25 05:42:38;;;;;;;23.70;12.57;;;6.70;57.20;;;;;;5072702;28;20926;-73
2022/03/25 05:45:07;;;;;;;23.57;12.80;;;6.80;56.90;;;;;;5071831;28;20240;-73
2022/03/25 05:47:36;;;;;;;20.67;12.80;;;6.80;56.90;;;;;;5067869;28;20217;-72
2022/03/25 05:50:06;;;;;;;23.77;12.97;;;6.90;57.00;;;;;;5072741;28;20279;-73
2022/03/25 05:52:33;;;;;;;21.57;12.67;;;7.00;56.90;;;;;;5067410;28;20257;-73
2022/03/25 05:55:01;;;;;;;22.73;13.33;;;7.00;56.80;;;;;;5077852;28;20229;-72
2022/03/25 05:57:28;;;;;;;22.77;12.23;;;7.20;56.70;;;;;;5062778;28;20273;-72
2022/03/25 05:59:57;;;;;;;23.07;12.77;;;7.30;56.50;;;;;;5071816;28;20319;-72
2022/03/25 06:02:24;;;;;;;29.43;13.30;;;7.50;56.30;;;;;;5071915;28;20206;-72
2022/03/25 06:04:51;;;;;;;23.67;12.77;;;7.50;55.90;;;;;;5077199;28;20264;-73
2022/03/25 06:07:20;;;;;;;19.60;12.43;;;7.60;55.60;;;;;;5076881;28;20610;-72
2022/03/25 06:09:47;;;;;;;20.33;12.47;;;7.70;55.60;;;;;;5076085;28;20624;-73
2022/03/25 06:12:14;;;;;;;22.20;12.33;;;7.90;55.60;;;;;;5076320;28;20212;-72
2022/03/25 06:14:41;;;;;;;24.37;13.13;;;8.10;55.10;;;;;;5076723;28;20247;-72
2022/03/25 06:17:08;;;;;;;23.07;13.03;;;8.20;54.50;;;;;;5064943;28;20300;-71
2022/03/25 06:19:36;;;;;;;24.60;12.97;;;8.20;54.20;;;;;;5075075;28;20225;-73
2022/03/25 06:22:03;;;;;;;23.50;12.67;;;8.20;54.20;;;;;;5077184;28;20556;-72
2022/03/25 06:24:31;;;;;;;22.10;12.83;;;8.20;54.20;;;;;;5065510;28;20255;-74
2022/03/25 06:26:58;;;;;;;20.77;12.40;;;8.20;54.00;;;;;;5073298;28;20649;-74
2022/03/25 06:29:25;;;;;;;20.80;12.03;;;8.20;53.90;;;;;;5070153;28;20247;-72
2022/03/25 06:31:52;;;;;;;23.90;11.90;;;8.30;54.00;;;;;;5070914;28;20209;-73
2022/03/25 06:34:23;;;;;;;20.93;12.97;;;8.40;53.90;;;;;;5072615;28;20220;-73
2022/03/25 06:36:50;;;;;;;26.60;13.40;;;8.50;53.70;;;;;;5071699;28;20739;-73
2022/03/25 06:39:17;;;;;;;17.27;12.17;;;8.60;53.40;;;;;;5074898;28;20198;-74
2022/03/25 06:41:46;;;;;;;26.23;12.67;;;8.70;53.10;;;;;;5075723;28;20201;-73
2022/03/25 06:44:12;;;;;;;20.93;12.57;;;8.80;53.00;;;;;;5067744;28;20229;-68
2022/03/25 06:46:40;;;;;;;19.33;12.90;;;8.90;52.80;;;;;;5068188;28;20646;-68
2022/03/25 06:49:07;;;;;;;19.73;12.20;;;8.90;52.70;;;;;;5069280;28;20233;-71
2022/03/25 06:51:35;;;;;;;17.57;10.97;;;9.10;52.50;;;;;;5062498;28;20249;-72
2022/03/25 06:54:03;;;;;;;19.93;11.60;;;9.20;52.10;;;;;;5072469;28;20579;-68
2022/03/25 06:56:35;;;;;;;16.40;10.77;;;9.30;51.70;;;;;;5075457;28;20577;-68
2022/03/25 06:59:04;;;;;;;21.43;11.43;;;9.40;51.50;;;;;;5073075;28;20213;-72
2022/03/25 07:01:32;;;;;;;16.93;10.30;;;9.50;51.60;;;;;;5074035;28;20319;-70
2022/03/25 07:04:01;;;;;;;20.63;11.00;;;9.60;50.30;;;;;;5074817;28;20262;-70
2022/03/25 07:06:29;;;;;;;23.27;10.87;;;9.70;49.80;;;;;;5077287;28;20201;-71
2022/03/25 07:08:58;;;;;;;21.27;11.97;;;9.80;49.40;;;;;;5076738;28;20527;-70
2022/03/25 07:11:25;;;;;;;19.07;11.00;;;9.90;49.50;;;;;;5073276;28;20579;-70
2022/03/25 07:13:53;;;;;;;22.50;11.63;;;10.10;48.80;;;;;;5066561;28;20293;-71
2022/03/25 07:16:21;;;;;;;24.17;11.50;;;10.20;48.60;;;;;;5075019;28;20264;-72
2022/03/25 07:18:48;;;;;;;18.47;12.03;;;10.40;48.50;;;;;;5073133;28;20197;-69
2022/03/25 07:21:16;;;;;;;23.77;11.97;;;10.60;48.30;;;;;;5067515;28;20282;-68
2022/03/25 07:23:43;;;;;;;22.63;12.03;;;10.80;48.10;;;;;;5061550;28;20361;-67
2022/03/25 07:26:10;;;;;;;21.03;12.10;;;11.00;47.90;;;;;;5068475;28;20293;-68
2022/03/25 07:28:37;;;;;;;23.03;12.03;;;11.10;47.50;;;;;;5057027;28;20210;-69
2022/03/25 07:31:06;;;;;;;21.63;11.97;;;11.20;47.50;;;;;;5067630;28;20285;-68
2022/03/25 07:33:35;;;;;;;21.80;11.77;;;11.30;47.30;;;;;;5063519;28;20655;-71
2022/03/25 07:36:02;;;;;;;22.40;12.17;;;11.50;47.90;;;;;;5070668;28;20283;-70
2022/03/25 07:38:29;;;;;;;21.97;12.90;;;11.60;47.20;;;;;;5066229;28;20198;-72
2022/03/25 07:40:57;;;;;;;20.47;12.20;;;11.80;46.70;;;;;;5069560;28;20724;-70
2022/03/25 07:43:24;;;;;;;21.80;13.00;;;12.00;46.70;;;;;;5067461;28;20229;-69
2022/03/25 07:45:51;;;;;;;19.87;12.50;;;12.10;46.40;;;;;;5065707;28;20225;-68
2022/03/25 07:48:18;;;;;;;23.50;12.90;;;12.20;46.40;;;;;;5059100;28;20258;-69
2022/03/25 07:50:47;;;;;;;27.90;13.00;;;12.40;46.40;;;;;;5068449;28;20241;-68
2022/03/25 07:53:14;;;;;;;21.83;12.13;;;12.70;46.30;;;;;;5070570;28;20228;-67
2022/03/25 07:55:43;;;;;;;20.17;12.00;;;12.80;46.00;;;;;;5075001;28;20221;-67
2022/03/25 07:58:10;;;;;;;20.30;12.10;;;13.00;45.90;;;;;;5075152;28;20213;-68
2022/03/25 08:00:38;;;;;;;23.57;12.40;;;13.20;45.70;;;;;;5073393;28;20714;-67
2022/03/25 08:03:07;;;;;;;24.97;12.37;;;13.40;45.70;;;;;;5070744;28;20232;-68
2022/03/25 08:05:34;;;;;;;23.23;13.37;;;13.50;45.40;;;;;;5072314;28;20250;-66
2022/03/25 08:08:03;;;;;;;20.10;11.73;;;13.70;45.10;;;;;;5068704;28;20197;-67
2022/03/25 08:10:31;;;;;;;24.37;12.57;;;13.90;45.30;;;;;;5068070;28;20296;-66
2022/03/25 08:12:59;;;;;;;21.63;12.90;;;14.00;44.60;;;;;;5061110;28;20206;-70
2022/03/25 08:15:27;;;;;;;24.00;11.60;;;14.10;44.20;;;;;;5068323;28;20316;-70
2022/03/25 08:17:57;;;;;;;23.93;12.87;;;14.30;44.80;;;;;;5071320;28;20205;-71
2022/03/25 08:20:27;;;;;;;19.20;11.80;;;14.50;44.40;;;;;;5067884;28;20212;-70
2022/03/25 08:22:54;;;;;;;20.37;12.30;;;14.70;43.90;;;;;;5069227;28;20209;-70
2022/03/25 08:28:07;;;;;;;23.77;13.00;;;15.00;43.40;;;;;;5061014;28;20229;-72
2022/03/25 08:30:35;;;;;;;22.83;12.80;;;15.20;43.00;;;;;;5068034;28;20242;-71
2022/03/25 08:33:03;;;;;;;25.20;11.97;;;15.20;42.60;;;;;;5073922;28;20244;-71
2022/03/25 08:35:30;;;;;;;23.57;12.70;;;15.30;42.70;;;;;;5078904;28;20278;-70
2022/03/25 08:37:57;;;;;;;25.60;13.60;;;15.50;42.60;;;;;;5072403;28;20217;-70
2022/03/25 08:40:29;;;;;;;23.33;13.43;;;15.70;42.40;;;;;;5074384;28;20248;-71
2022/03/25 08:42:56;;;;;;;20.17;12.90;;;15.90;41.90;;;;;;5068619;28;20253;-71
2022/03/25 08:45:23;;;;;;;26.63;12.97;;;16.00;41.40;;;;;;5065080;28;20284;-69
2022/03/25 08:47:55;;;;;;;23.53;13.70;;;16.00;41.50;;;;;;5069704;28;20209;-72
2022/03/25 08:50:23;;;;;;;24.67;12.47;;;16.00;41.30;;;;;;5073575;28;20206;-71
2022/03/25 08:52:51;;;;;;;27.57;12.67;;;16.10;41.40;;;;;;5074406;28;20291;-71
2022/03/25 08:55:20;;;;;;;25.73;12.00;;;16.30;41.40;;;;;;5071928;28;20272;-72
2022/03/25 08:57:49;;;;;;;27.50;13.37;;;16.50;41.80;;;;;;5065594;28;20284;-71
2022/03/25 09:00:18;;;;;;;20.67;12.00;;;16.80;41.10;;;;;;5062680;28;20711;-70
2022/03/25 09:02:46;;;;;;;19.63;12.40;;;17.10;40.50;;;;;;5067891;28;20244;-69
2022/03/25 09:05:14;;;;;;;19.47;12.23;;;17.30;40.20;;;;;;5069702;28;20245;-68
2022/03/25 09:07:42;;;;;;;19.27;12.23;;;17.30;39.90;;;;;;5069265;28;20243;-69
2022/03/25 09:10:11;;;;;;;19.98;12.15;;;17.50;39.90;;;;;;5063549;28;20577;-69
2022/03/25 09:12:38;;;;;;;18.83;12.23;;;17.70;39.80;;;;;;5066592;28;20288;-69
2022/03/25 09:15:09;;;;;;;18.88;11.98;;;17.90;39.60;;;;;;5071920;28;20274;-70
2022/03/25 09:17:36;;;;;;;20.92;12.75;;;18.10;39.60;;;;;;5072689;28;20589;-69
2022/03/25 09:20:06;;;;;;;17.58;12.95;;;18.50;39.80;;;;;;5063467;28;20659;-69
2022/03/25 09:22:34;;;;;;;22.35;13.02;;;19.50;39.00;;;;;;5075596;28;20245;-70
2022/03/25 09:25:02;;;;;;;20.00;12.80;;;22.60;38.10;;;;;;5077491;28;20227;-70
2022/03/25 09:27:29;;;;;;;19.35;12.07;;;26.30;33.20;;;;;;5076609;28;20205;-70
2022/03/25 09:29:56;;;;;;;13.95;10.85;;;29.60;29.20;;;;;;5075860;28;20929;-70
2022/03/25 09:32:25;;;;;;;18.63;12.43;;;32.30;27.30;;;;;;5075641;28;20207;-67
2022/03/25 09:35:13;;;;;;;20.20;12.15;;;34.40;24.90;;;;;;5064301;28;20236;-69
2022/03/25 09:37:42;;;;;;;16.85;11.75;;;36.00;24.00;;;;;;5062780;28;20258;-67
2022/03/25 09:40:12;;;;;;;17.38;10.40;;;37.60;23.10;;;;;;5066842;28;20236;-69
2022/03/25 09:42:40;;;;;;;18.55;11.68;;;39.00;22.40;;;;;;5069109;28;20284;-68
2022/03/25 09:45:08;;;;;;;16.25;12.20;;;40.30;21.30;;;;;;5060791;28;20720;-67
2022/03/25 09:47:37;;;;;;;17.50;12.35;;;40.90;20.80;;;;;;5074496;28;20292;-67
2022/03/25 09:50:07;;;;;;;18.63;12.80;;;41.10;20.60;;;;;;5068090;28;20278;-68
2022/03/25 09:52:34;;;;;;;15.60;11.48;;;41.80;20.10;;;;;;5073516;28;20227;-69
2022/03/25 09:55:04;;;;;;;15.77;11.75;;;42.50;19.90;;;;;;5076645;28;20257;-68
2022/03/25 09:57:32;;;;;;;17.17;11.90;;;43.10;19.50;;;;;;5068164;28;20293;-67
2022/03/25 09:59:59;;;;;;;16.30;12.57;;;43.20;19.40;;;;;;5065461;28;20643;-67
2022/03/25 10:02:26;;;;;;;18.30;14.52;;;43.20;19.20;;;;;;5062484;28;20205;-68
2022/03/25 10:04:55;;;;;;;16.75;13.02;;;43.10;19.10;;;;;;5062292;28;20202;-68
2022/03/25 10:07:25;;;;;;;19.55;13.70;;;42.80;19.20;;;;;;5068328;28;20209;-67
2022/03/25 10:10:08;;;;;;;17.52;14.50;;;42.30;19.30;;;;;;5065234;28;20215;-68
2022/03/25 10:12:36;;;;;;;18.73;13.75;;;42.30;19.40;;;;;;5068199;28;20223;-67
2022/03/25 10:15:16;;;;;;;18.42;13.15;;;42.70;19.30;;;;;;5071698;28;20704;-67
2022/03/25 10:17:54;;;;;;;17.77;13.40;;;43.20;19.00;;;;;;5059639;28;20628;-71
2022/03/25 10:20:24;;;;;;;16.10;13.23;;;43.40;19.20;;;;;;5064148;28;20296;-69
2022/03/25 10:23:04;;;;;;;15.90;12.65;;;43.60;18.90;;;;;;5072707;28;20201;-70
2022/03/25 10:25:42;;;;;;;15.65;12.50;;;43.50;18.80;;;;;;5073639;28;20197;-70
2022/03/25 10:28:29;;;;;;;18.20;13.15;;;43.30;18.80;;;;;;5067072;28;20197;-69
2022/03/25 10:30:58;;;;;;;15.88;12.77;;;42.40;18.90;;;;;;5070873;28;20215;-66
2022/03/25 10:33:29;;;;;;;20.80;12.95;;;41.80;19.20;;;;;;5067947;28;20216;-69
2022/03/25 10:36:02;;;;;;;25.73;14.25;;;41.10;19.50;;;;;;5068986;28;20209;-69
2022/03/25 10:38:41;;;;;;;22.73;13.35;;;40.10;19.90;;;;;;5069149;28;20240;-68
2022/03/25 10:41:08;;;;;;;18.13;13.35;;;39.00;20.30;;;;;;5067361;28;20197;-69
2022/03/25 10:43:36;;;;;;;17.02;12.88;;;38.50;20.70;;;;;;5065803;28;20332;-69
2022/03/25 10:46:03;;;;;;;18.80;13.13;;;38.40;20.90;;;;;;5065599;28;20557;-69
2022/03/25 10:48:29;;;;;;;25.08;13.93;;;38.10;21.00;;;;;;5068808;28;20677;-68
2022/03/25 10:51:07;;;;;;;13.25;10.75;;;38.20;21.00;;;;;;5060158;28;20299;-68
2022/03/25 10:53:37;;;;;;;16.52;12.45;;;38.30;21.00;;;;;;5061389;28;20208;-69
2022/03/25 10:56:07;;;;;;;18.85;13.40;;;38.20;20.80;;;;;;5061112;28;20638;-69
2022/03/25 10:58:35;;;;;;;19.63;14.02;;;37.60;21.30;;;;;;5068732;28;20208;-67
2022/03/25 11:01:03;;;;;;;18.83;13.55;;;37.40;21.20;;;;;;5067611;28;20301;-68
2022/03/25 11:03:30;;;;;;;21.52;13.70;;;37.20;21.40;;;;;;5061457;28;20702;-67
2022/03/25 11:05:57;;;;;;;18.42;12.75;;;36.90;21.40;;;;;;5061139;28;20247;-66
2022/03/25 11:08:26;;;;;;;16.35;13.45;;;36.20;21.40;;;;;;5069554;28;20680;-66
2022/03/25 11:10:53;;;;;;;18.08;13.05;;;34.90;22.10;;;;;;5068330;28;20201;-66
2022/03/25 11:13:23;;;;;;;17.02;12.25;;;34.00;22.50;;;;;;5064844;28;20212;-67
2022/03/25 11:15:52;;;;;;;18.80;12.52;;;33.00;22.90;;;;;;5072674;28;20324;-66
2022/03/25 11:18:22;;;;;;;23.17;13.50;;;32.60;23.50;;;;;;5074484;28;20676;-67
2022/03/25 11:20:52;;;;;;;21.60;12.55;;;32.00;23.60;;;;;;5064026;28;20226;-67
2022/03/25 11:23:23;;;;;;;22.77;13.73;;;31.40;24.00;;;;;;5057808;28;20198;-67
2022/03/25 11:25:54;;;;;;;17.20;12.55;;;30.90;24.70;;;;;;5070185;28;20289;-66
2022/03/25 11:28:29;;;;;;;14.55;10.93;;;30.50;24.60;;;;;;5062475;28;20206;-67
2022/03/25 11:31:01;;;;;;;16.35;9.45;;;30.20;24.70;;;;;;5073840;28;20274;-66
2022/03/25 11:33:28;;;;;;;13.35;9.25;;;29.80;24.90;;;;;;5070781;28;20236;-66
2022/03/25 11:36:14;;;;;;;14.07;9.95;;;29.60;24.80;;;;;;5072523;28;20221;-66
2022/03/25 11:38:41;;;;;;;17.73;11.77;;;29.30;24.50;;;;;;5069528;28;20201;-66
2022/03/25 11:41:24;;;;;;;18.25;12.45;;;28.90;25.10;;;;;;5070634;28;20240;-70
2022/03/25 11:44:20;;;;;;;19.05;13.15;;;28.60;25.50;;;;;;5069123;28;20237;-70
2022/03/25 11:47:13;;;;;;;18.20;13.30;;;28.50;25.70;;;;;;5067147;28;20212;-68
2022/03/25 11:49:40;;;;;;;17.98;11.75;;;28.40;26.00;;;;;;5068898;28;20224;-68
2022/03/25 11:52:29;;;;;;;16.73;11.07;;;28.30;25.40;;;;;;5065250;28;20293;-69
2022/03/25 11:54:58;;;;;;;17.63;11.32;;;28.00;25.70;;;;;;5067769;28;20212;-71
2022/03/25 11:57:28;;;;;;;17.10;10.43;;;27.80;25.80;;;;;;5070659;28;20572;-69
2022/03/25 11:59:57;;;;;;;17.05;10.40;;;27.40;25.90;;;;;;5059885;28;20684;-69
2022/03/25 12:02:36;;;;;;;11.80;9.38;;;27.30;26.00;;;;;;5071985;28;20210;-69
2022/03/25 12:05:05;;;;;;;15.75;11.70;;;27.20;26.10;;;;;;5068671;28;20234;-68
2022/03/25 12:07:32;;;;;;;17.60;10.55;;;27.00;26.10;;;;;;5069275;28;20244;-69
2022/03/25 12:09:59;;;;;;;19.75;10.90;;;26.50;26.40;;;;;;5076059;28;20681;-68
2022/03/25 12:12:55;;;;;;;18.27;13.95;;;26.10;26.60;;;;;;5062279;28;20647;-72
2022/03/25 12:15:40;;;;;;;20.00;13.70;;;25.70;27.30;;;;;;5064189;28;20217;-69
2022/03/25 12:18:42;;;;;;;17.63;12.60;;;25.40;27.60;;;;;;5062937;28;20204;-70
2022/03/25 12:21:46;;;;;;;21.08;13.25;;;25.40;27.80;;;;;;5064154;28;20235;-69
2022/03/25 12:24:13;;;;;;;19.33;13.38;;;25.40;27.70;;;;;;5059733;28;20237;-70
2022/03/25 12:26:40;;;;;;;16.33;10.63;;;25.30;27.70;;;;;;5069828;28;20269;-68
2022/03/25 12:29:09;;;;;;;16.20;11.80;;;25.20;27.70;;;;;;5074625;28;20205;-69
2022/03/25 12:31:37;;;;;;;21.05;11.82;;;25.00;27.70;;;;;;5068436;28;20197;-70
2022/03/25 12:34:05;;;;;;;21.42;11.40;;;25.20;28.10;;;;;;5076771;28;20255;-69
2022/03/25 12:36:38;;;;;;;18.65;11.77;;;25.50;27.70;;;;;;5060250;28;20233;-69
2022/03/25 12:39:06;;;;;;;14.95;10.77;;;25.50;27.40;;;;;;5063128;28;20201;-69
2022/03/25 12:41:33;;;;;;;16.75;10.93;;;25.40;27.50;;;;;;5067288;28;20373;-69
2022/03/25 12:44:00;;;;;;;17.23;11.13;;;25.20;27.50;;;;;;5063788;28;20320;-70